Terminal Aerodrome Forecast
Issued by NWS

Home | Current Version | Previous Version | Text Only | Print | Product List | Glossary Off
Versions: 1 2 3 4 5 6 7 8 9 10 11 12 13 14 15 16 17 18 19 20 21 22 23 24

869
FTUS43 KABR 231723
TAFMBG
TAF
KMBG 231723Z 2318/2418 14006KT P6SM SCT100
     FM232000 05009KT P6SM BKN110
     FM240200 36011KT P6SM OVC025
     FM241200 36009KT P6SM BKN020
     FM241600 01011KT P6SM BKN035=

USA.gov is the U.S. government's official web portal to all federal, state and local government web resources and services.